createdAt,value
2023-01-27T00:01:06.269Z,15.07
2023-01-27T00:03:33.724Z,15.67
2023-01-27T00:06:01.432Z,15.90
2023-01-27T00:08:29.834Z,16.83
2023-01-27T00:11:19.942Z,13.43
2023-01-27T00:13:46.914Z,15.40
2023-01-27T00:16:13.877Z,12.93
2023-01-27T00:18:40.902Z,16.77
2023-01-27T00:21:26.405Z,14.00
2023-01-27T00:24:12.145Z,15.30
2023-01-27T00:26:39.116Z,14.03
2023-01-27T00:29:06.192Z,13.60
2023-01-27T00:31:51.627Z,14.57
2023-01-27T00:34:19.156Z,13.10
2023-01-27T00:36:46.252Z,14.20
2023-01-27T00:39:14.296Z,12.50
2023-01-27T00:41:41.310Z,14.63
2023-01-27T00:44:13.545Z,14.00
2023-01-27T00:46:42.534Z,13.70
2023-01-27T00:49:13.478Z,13.43
2023-01-27T00:51:40.733Z,14.60
2023-01-27T00:54:07.665Z,13.23
2023-01-27T00:56:34.915Z,11.43
2023-01-27T00:59:01.898Z,11.27
2023-01-27T01:01:30.881Z,13.20
2023-01-27T01:04:00.705Z,13.70
2023-01-27T01:06:28.439Z,14.53
2023-01-27T01:08:57.795Z,13.00
2023-01-27T01:11:26.042Z,12.33
2023-01-27T01:13:55.595Z,13.90
2023-01-27T01:16:25.554Z,14.47
2023-01-27T01:18:54.375Z,14.60
2023-01-27T01:21:22.463Z,15.00
2023-01-27T01:23:49.725Z,15.03
2023-01-27T01:26:18.116Z,14.30
2023-01-27T01:28:46.281Z,15.70
2023-01-27T01:31:18.072Z,14.87
2023-01-27T01:33:46.878Z,13.10
2023-01-27T01:36:18.098Z,12.03
2023-01-27T01:38:45.395Z,15.30
2023-01-27T01:41:17.368Z,13.20
2023-01-27T01:43:44.990Z,14.03
2023-01-27T01:46:13.236Z,12.57
2023-01-27T01:48:55.054Z,12.83
2023-01-27T01:51:32.408Z,14.37
2023-01-27T01:54:15.468Z,14.80
2023-01-27T01:57:08.178Z,13.10
2023-01-27T01:59:58.804Z,13.73
2023-01-27T02:02:27.221Z,13.20
2023-01-27T02:05:05.949Z,11.90
2023-01-27T02:08:04.055Z,14.27
2023-01-27T02:10:34.185Z,13.13
2023-01-27T02:13:01.262Z,12.47
2023-01-27T02:15:31.365Z,12.07
2023-01-27T02:18:01.069Z,12.40
2023-01-27T02:20:50.122Z,12.63
2023-01-27T02:24:00.316Z,12.47
2023-01-27T02:26:32.893Z,12.17
2023-01-27T02:29:07.494Z,12.13
2023-01-27T02:31:36.105Z,13.57
2023-01-27T02:34:21.173Z,13.07
2023-01-27T02:36:54.897Z,11.07
2023-01-27T02:39:28.389Z,11.57
2023-01-27T02:41:58.099Z,11.57
2023-01-27T02:44:25.145Z,12.50
2023-01-27T02:46:52.061Z,10.77
2023-01-27T02:49:19.021Z,13.50
2023-01-27T02:51:46.019Z,12.17
2023-01-27T02:54:13.496Z,12.90
2023-01-27T02:56:40.436Z,13.10
2023-01-27T02:59:07.486Z,11.80
2023-01-27T03:01:34.581Z,10.67
2023-01-27T03:04:03.000Z,11.60
2023-01-27T03:06:29.929Z,12.33
2023-01-27T03:08:56.883Z,11.87
2023-01-27T03:11:42.615Z,12.13
2023-01-27T03:14:10.571Z,10.63
2023-01-27T03:16:56.189Z,10.33
2023-01-27T03:19:23.205Z,13.30
2023-01-27T03:21:51.704Z,10.93
2023-01-27T03:24:20.223Z,10.23
2023-01-27T03:26:47.318Z,11.70
2023-01-27T03:29:33.157Z,11.30
2023-01-27T03:32:00.632Z,10.77
2023-01-27T03:34:27.533Z,9.07
2023-01-27T03:37:13.263Z,11.30
2023-01-27T03:39:58.820Z,10.80
2023-01-27T03:42:44.277Z,11.47
2023-01-27T03:45:29.923Z,10.57
2023-01-27T03:47:57.345Z,11.60
2023-01-27T03:50:37.978Z,9.80
2023-01-27T03:53:06.245Z,12.77
2023-01-27T03:55:36.817Z,12.33
2023-01-27T03:58:23.462Z,10.90
2023-01-27T04:00:56.817Z,12.07
2023-01-27T04:03:45.217Z,13.60
2023-01-27T04:06:35.556Z,12.33
2023-01-27T04:09:02.625Z,13.30
2023-01-27T04:11:49.628Z,12.47
2023-01-27T04:14:17.157Z,13.50
2023-01-27T04:16:44.849Z,14.67
2023-01-27T04:19:14.525Z,11.40
2023-01-27T04:21:41.736Z,11.63
2023-01-27T04:24:08.969Z,12.90
2023-01-27T04:26:36.333Z,11.23
2023-01-27T04:29:05.137Z,10.40
2023-01-27T04:31:32.904Z,12.90
2023-01-27T04:34:00.107Z,11.43
2023-01-27T04:36:27.054Z,13.03
2023-01-27T04:38:54.035Z,11.30
2023-01-27T04:41:21.031Z,14.33
2023-01-27T04:43:48.353Z,11.17
2023-01-27T04:46:15.419Z,12.80
2023-01-27T04:48:52.032Z,12.77
2023-01-27T04:51:19.141Z,11.17
2023-01-27T04:53:46.171Z,11.97
2023-01-27T04:56:26.036Z,11.80
2023-01-27T04:58:54.985Z,11.53
2023-01-27T05:01:22.055Z,11.60
2023-01-27T05:03:49.543Z,10.87
2023-01-27T05:06:17.340Z,11.70
2023-01-27T05:08:44.875Z,13.43
2023-01-27T05:11:12.556Z,12.27
2023-01-27T05:13:41.146Z,10.63
2023-01-27T05:16:17.989Z,14.33
2023-01-27T05:18:48.204Z,12.10
2023-01-27T05:21:19.007Z,12.40
2023-01-27T05:23:46.590Z,13.77
2023-01-27T05:26:26.899Z,14.00
2023-01-27T05:28:56.275Z,12.57
2023-01-27T05:31:28.736Z,13.47
2023-01-27T05:33:59.760Z,12.13
2023-01-27T05:36:28.115Z,12.80
2023-01-27T05:38:57.456Z,12.67
2023-01-27T05:41:25.183Z,14.17
2023-01-27T05:43:54.887Z,14.83
2023-01-27T05:46:25.795Z,15.23
2023-01-27T05:48:57.176Z,13.10
2023-01-27T05:51:27.047Z,13.73
2023-01-27T05:53:56.535Z,12.83
2023-01-27T05:56:25.634Z,13.40
2023-01-27T05:58:57.681Z,13.30
2023-01-27T06:01:31.437Z,12.47
2023-01-27T06:03:59.608Z,12.57
2023-01-27T06:06:30.857Z,14.20
2023-01-27T06:08:58.620Z,14.30
2023-01-27T06:11:26.758Z,15.20
2023-01-27T06:13:54.542Z,13.80
2023-01-27T06:16:23.384Z,14.70
2023-01-27T06:18:51.423Z,13.27
2023-01-27T06:21:18.739Z,14.50
2023-01-27T06:23:45.765Z,13.30
2023-01-27T06:26:16.948Z,11.37
2023-01-27T06:28:44.963Z,12.60
2023-01-27T06:31:20.501Z,14.83
2023-01-27T06:33:48.422Z,13.40
2023-01-27T06:36:19.706Z,13.97
2023-01-27T06:38:48.263Z,12.30
2023-01-27T06:41:15.500Z,12.93
2023-01-27T06:43:42.476Z,13.67
2023-01-27T06:46:09.828Z,11.53
2023-01-27T06:48:38.131Z,12.93
2023-01-27T06:51:05.488Z,13.83
2023-01-27T06:53:32.861Z,12.77
2023-01-27T06:56:02.040Z,12.80
2023-01-27T06:58:30.088Z,12.87
2023-01-27T07:00:57.271Z,13.17
2023-01-27T07:03:25.240Z,13.53
2023-01-27T07:05:53.713Z,11.43
2023-01-27T07:08:20.785Z,11.83
2023-01-27T07:10:47.759Z,11.80
2023-01-27T07:13:15.551Z,13.53
2023-01-27T07:15:42.965Z,18.97
2023-01-27T07:18:12.553Z,21.03
2023-01-27T07:20:41.584Z,17.63
2023-01-27T07:23:10.377Z,13.10
2023-01-27T07:25:37.729Z,13.23
2023-01-27T07:28:06.021Z,15.50
2023-01-27T07:30:35.147Z,15.00
2023-01-27T07:33:11.543Z,14.13
2023-01-27T07:35:41.334Z,14.77
2023-01-27T07:38:09.505Z,12.20
2023-01-27T07:40:36.432Z,12.90
2023-01-27T07:43:04.115Z,14.60
2023-01-27T07:45:31.231Z,17.03
2023-01-27T07:48:03.825Z,15.23
2023-01-27T07:50:31.007Z,12.63
2023-01-27T07:53:03.354Z,14.27
2023-01-27T07:55:32.361Z,12.50
2023-01-27T07:57:59.455Z,12.83
2023-01-27T08:00:28.694Z,12.70
2023-01-27T08:02:57.819Z,15.00
2023-01-27T08:05:25.548Z,13.10
2023-01-27T08:07:57.129Z,14.70
2023-01-27T08:10:25.975Z,12.90
2023-01-27T08:12:53.107Z,14.37
2023-01-27T08:15:20.269Z,13.83
2023-01-27T08:17:57.793Z,16.53
2023-01-27T08:20:27.500Z,15.93
2023-01-27T08:22:54.680Z,16.10
2023-01-27T08:25:22.610Z,15.13
2023-01-27T08:27:52.014Z,14.30
2023-01-27T08:30:20.315Z,14.27
2023-01-27T08:32:48.055Z,16.27
2023-01-27T08:35:15.145Z,14.77
2023-01-27T08:37:42.250Z,13.83
2023-01-27T08:40:10.993Z,15.10
2023-01-27T08:42:38.121Z,15.77
2023-01-27T08:45:06.362Z,15.63
2023-01-27T08:47:33.227Z,16.07
2023-01-27T08:50:00.367Z,16.33
2023-01-27T08:52:27.857Z,15.90
2023-01-27T08:54:54.853Z,15.73
2023-01-27T08:57:21.884Z,14.77
2023-01-27T08:59:48.751Z,14.27
2023-01-27T09:02:15.719Z,16.47
2023-01-27T09:04:44.432Z,14.00
2023-01-27T09:07:11.809Z,14.90
2023-01-27T09:09:38.951Z,14.90
2023-01-27T09:12:06.055Z,14.30
2023-01-27T09:14:33.119Z,17.27
2023-01-27T09:17:00.286Z,15.40
2023-01-27T09:19:27.228Z,15.80
2023-01-27T09:21:54.247Z,17.50
2023-01-27T09:24:21.367Z,16.20
2023-01-27T09:26:48.678Z,17.03
2023-01-27T09:29:15.807Z,16.60
2023-01-27T09:31:42.882Z,15.60
2023-01-27T09:34:10.099Z,17.83
2023-01-27T09:36:43.716Z,15.60
2023-01-27T09:39:12.394Z,18.97
2023-01-27T09:42:07.324Z,14.67
2023-01-27T09:44:58.737Z,15.50
2023-01-27T09:47:50.040Z,16.00
2023-01-27T09:50:52.316Z,15.23
2023-01-27T09:53:51.459Z,17.60
2023-01-27T09:57:04.075Z,15.17
2023-01-27T09:59:52.962Z,16.00
2023-01-27T10:02:56.559Z,16.77
2023-01-27T10:06:04.296Z,16.77
2023-01-27T10:09:28.727Z,18.00
2023-01-27T10:11:55.665Z,15.83
2023-01-27T10:14:53.467Z,17.00
2023-01-27T10:17:42.558Z,16.40
2023-01-27T10:20:27.357Z,16.00
2023-01-27T10:23:10.148Z,16.03
2023-01-27T10:26:19.166Z,16.40
2023-01-27T10:28:52.451Z,16.30
2023-01-27T10:31:27.468Z,17.10
2023-01-27T10:33:58.806Z,17.70
2023-01-27T10:36:29.211Z,18.70
2023-01-27T10:39:23.834Z,19.00
2023-01-27T10:41:59.687Z,16.97
2023-01-27T10:45:00.250Z,18.60
2023-01-27T10:48:00.276Z,14.93
2023-01-27T10:50:50.838Z,16.83
2023-01-27T10:53:39.678Z,17.33
2023-01-27T10:56:48.567Z,17.03
2023-01-27T10:59:35.708Z,14.20
2023-01-27T11:02:24.466Z,15.43
2023-01-27T11:05:02.816Z,15.60
2023-01-27T11:07:32.031Z,16.37
2023-01-27T11:10:14.630Z,19.50
2023-01-27T11:12:49.155Z,18.70
2023-01-27T11:15:36.431Z,19.13
2023-01-27T11:18:21.175Z,19.27
2023-01-27T11:21:19.449Z,18.63
2023-01-27T11:23:56.142Z,17.70
2023-01-27T11:26:41.426Z,17.80
2023-01-27T11:29:36.759Z,17.70
2023-01-27T11:32:44.737Z,16.83
2023-01-27T11:35:16.257Z,18.23
2023-01-27T11:37:51.067Z,18.37
2023-01-27T11:40:35.076Z,17.27
2023-01-27T11:43:05.060Z,15.47
2023-01-27T11:45:36.474Z,15.60
2023-01-27T11:48:08.643Z,14.33
2023-01-27T11:50:37.165Z,14.17
2023-01-27T11:53:27.984Z,16.13
2023-01-27T11:56:03.176Z,15.33
2023-01-27T11:59:02.115Z,16.73
2023-01-27T12:02:07.502Z,17.40
2023-01-27T12:05:07.792Z,15.53
2023-01-27T12:08:01.222Z,16.33
2023-01-27T12:10:29.366Z,16.13
2023-01-27T12:12:59.133Z,15.63
2023-01-27T12:15:29.640Z,14.83
2023-01-27T12:18:15.873Z,19.23
2023-01-27T12:20:47.133Z,24.60
2023-01-27T12:23:42.000Z,19.37
2023-01-27T12:26:12.008Z,21.43
2023-01-27T12:28:50.674Z,17.77
2023-01-27T12:31:30.850Z,17.80
2023-01-27T12:34:07.882Z,16.00
2023-01-27T12:36:41.975Z,17.00
2023-01-27T12:39:36.144Z,17.00
2023-01-27T12:42:04.023Z,16.50
2023-01-27T12:44:48.023Z,18.07
2023-01-27T12:47:29.587Z,17.20
2023-01-27T12:50:26.178Z,16.87
2023-01-27T12:53:21.327Z,13.80
2023-01-27T12:56:24.018Z,17.07
2023-01-27T12:59:02.483Z,15.47
2023-01-27T13:01:41.588Z,16.40
2023-01-27T13:04:18.432Z,16.93
2023-01-27T13:06:57.847Z,17.03
2023-01-27T13:09:31.121Z,16.10
2023-01-27T13:12:05.752Z,15.23
2023-01-27T13:14:41.852Z,17.30
2023-01-27T13:17:28.979Z,15.57
2023-01-27T13:20:03.678Z,14.33
2023-01-27T13:22:48.960Z,13.17
2023-01-27T13:25:24.407Z,16.57
2023-01-27T13:27:59.458Z,13.70
2023-01-27T13:30:34.354Z,16.03
2023-01-27T13:33:21.691Z,14.80
2023-01-27T13:36:13.543Z,14.63
2023-01-27T13:39:05.248Z,13.70
2023-01-27T13:41:44.233Z,14.17
2023-01-27T13:44:43.717Z,13.30
2023-01-27T13:47:52.689Z,14.93
2023-01-27T13:50:33.490Z,14.43
2023-01-27T13:53:01.877Z,13.63
2023-01-27T13:56:12.413Z,15.70
2023-01-27T13:58:47.691Z,13.90
2023-01-27T14:02:08.877Z,14.10
2023-01-27T14:04:57.348Z,13.57
2023-01-27T14:07:36.948Z,13.97
2023-01-27T14:10:32.909Z,13.50
2023-01-27T14:13:27.853Z,14.73
2023-01-27T14:16:21.604Z,14.60
2023-01-27T14:19:17.406Z,15.10
2023-01-27T14:21:53.228Z,14.80
2023-01-27T14:24:56.343Z,13.13
2023-01-27T14:27:53.569Z,13.20
2023-01-27T14:30:36.816Z,14.50
2023-01-27T14:33:23.576Z,15.40
2023-01-27T14:36:11.847Z,15.33
2023-01-27T14:39:20.625Z,13.50
2023-01-27T14:42:23.412Z,15.33
2023-01-27T14:45:05.272Z,16.50
2023-01-27T14:47:44.207Z,14.83
2023-01-27T14:50:44.189Z,15.83
2023-01-27T14:53:46.599Z,13.43
2023-01-27T14:56:53.372Z,16.20
2023-01-27T15:00:00.116Z,14.90
2023-01-27T15:02:48.529Z,14.40
2023-01-27T15:05:45.654Z,14.53
2023-01-27T15:08:35.815Z,13.83
2023-01-27T15:11:45.962Z,13.13
2023-01-27T15:14:43.600Z,12.90
2023-01-27T15:17:29.457Z,14.30
2023-01-27T15:20:41.213Z,13.33
2023-01-27T15:23:17.013Z,15.20
2023-01-27T15:26:06.976Z,14.57
2023-01-27T15:28:40.188Z,14.23
2023-01-27T15:31:16.897Z,14.93
2023-01-27T15:34:05.200Z,15.53
2023-01-27T15:36:41.067Z,13.97
2023-01-27T15:39:11.293Z,12.70
2023-01-27T15:41:51.968Z,15.23
2023-01-27T15:44:31.265Z,14.30
2023-01-27T15:47:26.572Z,15.07
2023-01-27T15:50:24.462Z,15.40
2023-01-27T15:52:52.407Z,13.90
2023-01-27T15:55:28.094Z,15.17
2023-01-27T15:58:05.979Z,15.57
2023-01-27T16:00:40.392Z,15.37
2023-01-27T16:03:22.582Z,14.93
2023-01-27T16:05:53.544Z,14.33
2023-01-27T16:08:21.190Z,14.63
2023-01-27T16:10:48.384Z,15.40
2023-01-27T16:13:15.263Z,15.37
2023-01-27T16:15:42.303Z,15.40
2023-01-27T16:18:09.452Z,15.97
2023-01-27T16:20:42.650Z,15.47
2023-01-27T16:23:19.377Z,17.90
2023-01-27T16:25:56.648Z,17.47
2023-01-27T16:28:35.149Z,16.20
2023-01-27T16:31:03.766Z,16.33
2023-01-27T16:33:38.888Z,16.83
2023-01-27T16:36:17.437Z,17.40
2023-01-27T16:38:45.812Z,16.17
2023-01-27T16:41:33.496Z,16.23
2023-01-27T16:44:16.741Z,14.13
2023-01-27T16:46:51.229Z,13.33
2023-01-27T16:49:32.661Z,16.23
2023-01-27T16:52:04.180Z,16.30
2023-01-27T16:54:43.039Z,17.60
2023-01-27T16:57:34.152Z,18.07
2023-01-27T17:00:25.549Z,16.00
2023-01-27T17:02:54.643Z,15.40
2023-01-27T17:05:22.412Z,18.23
2023-01-27T17:08:18.679Z,16.03
2023-01-27T17:10:52.019Z,16.00
2023-01-27T17:13:44.480Z,17.60
2023-01-27T17:16:24.673Z,16.30
2023-01-27T17:18:54.733Z,14.50
2023-01-27T17:21:39.709Z,16.83
2023-01-27T17:24:17.542Z,17.20
2023-01-27T17:26:49.330Z,19.33
2023-01-27T17:29:21.830Z,15.80
2023-01-27T17:31:50.166Z,16.87
2023-01-27T17:34:20.329Z,15.63
2023-01-27T17:37:25.123Z,16.87
2023-01-27T17:39:58.661Z,17.07
2023-01-27T17:42:31.754Z,15.50
2023-01-27T17:45:30.451Z,15.30
2023-01-27T17:48:01.242Z,14.73
2023-01-27T17:50:36.596Z,16.07
2023-01-27T17:53:10.371Z,16.27
2023-01-27T17:55:38.269Z,16.87
2023-01-27T17:58:11.238Z,16.20
2023-01-27T18:00:42.275Z,16.60
2023-01-27T18:03:28.543Z,17.97
2023-01-27T18:05:55.819Z,19.90
2023-01-27T18:08:26.529Z,17.10
2023-01-27T18:10:54.579Z,17.40
2023-01-27T18:13:28.003Z,16.70
2023-01-27T18:16:19.892Z,17.87
2023-01-27T18:18:49.975Z,19.73
2023-01-27T18:21:22.202Z,20.47
2023-01-27T18:23:58.829Z,20.37
2023-01-27T18:26:38.023Z,18.93
2023-01-27T18:29:20.353Z,17.47
2023-01-27T18:32:08.742Z,17.13
2023-01-27T18:34:47.965Z,16.03
2023-01-27T18:37:31.140Z,16.97
2023-01-27T18:40:00.548Z,15.10
2023-01-27T18:42:31.734Z,17.40
2023-01-27T18:44:58.908Z,17.43
2023-01-27T18:47:34.518Z,18.60
2023-01-27T18:50:01.483Z,17.30
2023-01-27T18:52:30.024Z,16.07
2023-01-27T18:55:24.820Z,17.57
2023-01-27T18:57:58.505Z,16.20
2023-01-27T19:00:31.192Z,15.40
2023-01-27T19:03:02.987Z,15.57
2023-01-27T19:05:36.274Z,15.40
2023-01-27T19:08:05.035Z,15.37
2023-01-27T19:10:34.980Z,16.00
2023-01-27T19:13:04.127Z,14.90
2023-01-27T19:15:41.290Z,16.00
2023-01-27T19:18:25.846Z,14.10
2023-01-27T19:20:54.805Z,15.10
2023-01-27T19:23:22.435Z,14.10
2023-01-27T19:25:59.684Z,13.93
2023-01-27T19:28:37.058Z,17.30
2023-01-27T19:31:07.665Z,16.40
2023-01-27T19:33:37.868Z,16.93
2023-01-27T19:36:41.210Z,14.80
2023-01-27T19:39:08.071Z,14.60
2023-01-27T19:41:35.416Z,13.73
2023-01-27T19:44:04.679Z,14.20
2023-01-27T19:46:34.748Z,14.50
2023-01-27T19:49:02.177Z,16.40
2023-01-27T19:51:29.242Z,16.10
2023-01-27T19:53:59.703Z,16.13
2023-01-27T19:56:32.669Z,15.63
2023-01-27T19:59:00.236Z,16.60
2023-01-27T20:01:27.673Z,16.23
2023-01-27T20:03:55.449Z,15.70
2023-01-27T20:06:27.168Z,16.17
2023-01-27T20:08:57.709Z,15.60
2023-01-27T20:11:39.721Z,18.00
2023-01-27T20:14:19.413Z,18.30
2023-01-27T20:16:47.701Z,16.70
2023-01-27T20:19:18.316Z,15.70
2023-01-27T20:21:46.578Z,17.87
2023-01-27T20:24:16.767Z,16.20
2023-01-27T20:26:44.365Z,17.20
2023-01-27T20:29:11.603Z,18.00
2023-01-27T20:31:39.377Z,17.20
2023-01-27T20:34:06.699Z,17.20
2023-01-27T20:36:33.660Z,17.17
2023-01-27T20:39:00.988Z,17.47
2023-01-27T20:41:28.202Z,17.60
2023-01-27T20:43:57.658Z,18.23
2023-01-27T20:46:25.267Z,18.97
2023-01-27T20:48:52.933Z,16.17
2023-01-27T20:51:20.448Z,19.60
2023-01-27T20:53:47.477Z,17.27
2023-01-27T20:56:21.245Z,21.40
2023-01-27T20:58:49.354Z,16.77
2023-01-27T21:01:20.637Z,18.80
2023-01-27T21:03:48.155Z,18.70
2023-01-27T21:06:16.371Z,17.23
2023-01-27T21:08:44.052Z,18.63
2023-01-27T21:11:13.202Z,19.57
2023-01-27T21:13:40.369Z,17.77
2023-01-27T21:16:10.503Z,18.07
2023-01-27T21:18:38.083Z,17.83
2023-01-27T21:21:06.138Z,16.27
2023-01-27T21:23:34.977Z,19.70
2023-01-27T21:26:09.652Z,17.83
2023-01-27T21:28:37.246Z,20.33
2023-01-27T21:31:16.463Z,18.57
2023-01-27T21:34:07.972Z,21.60
2023-01-27T21:36:36.109Z,18.50
2023-01-27T21:39:05.183Z,18.60
2023-01-27T21:41:51.604Z,19.57
2023-01-27T21:44:42.689Z,15.40
2023-01-27T21:47:16.754Z,17.80
2023-01-27T21:50:01.275Z,17.13
2023-01-27T21:52:42.398Z,17.97
2023-01-27T21:55:31.361Z,16.50
2023-01-27T21:57:58.363Z,16.13
2023-01-27T22:00:29.008Z,16.90
2023-01-27T22:02:59.373Z,16.77
2023-01-27T22:05:28.169Z,18.57
2023-01-27T22:07:55.216Z,17.80
2023-01-27T22:10:25.790Z,19.00
2023-01-27T22:12:58.961Z,15.47
2023-01-27T22:15:30.418Z,16.03
2023-01-27T22:17:59.088Z,16.73
2023-01-27T22:20:27.579Z,17.10
2023-01-27T22:22:55.147Z,17.37
2023-01-27T22:25:23.057Z,19.73
2023-01-27T22:27:54.656Z,18.27
2023-01-27T22:30:21.961Z,17.80
2023-01-27T22:32:50.134Z,19.73
2023-01-27T22:35:18.700Z,19.57
2023-01-27T22:37:46.479Z,19.63
2023-01-27T22:40:14.522Z,19.60
2023-01-27T22:42:41.784Z,17.73
2023-01-27T22:45:11.438Z,18.57
2023-01-27T22:47:38.436Z,16.77
2023-01-27T22:50:06.978Z,17.97
2023-01-27T22:52:37.047Z,17.50
2023-01-27T22:55:09.945Z,18.07
2023-01-27T22:57:36.960Z,17.60
2023-01-27T23:00:07.629Z,17.43
2023-01-27T23:02:36.737Z,18.57
2023-01-27T23:05:04.385Z,17.90
2023-01-27T23:07:31.308Z,17.77
2023-01-27T23:09:58.284Z,16.90
2023-01-27T23:12:25.186Z,18.33
2023-01-27T23:14:52.414Z,18.93
2023-01-27T23:17:19.379Z,17.97
2023-01-27T23:19:46.425Z,18.00
2023-01-27T23:22:13.339Z,18.53
2023-01-27T23:24:40.269Z,17.70
2023-01-27T23:27:07.254Z,18.83
2023-01-27T23:29:34.196Z,17.40
2023-01-27T23:32:01.297Z,19.87
2023-01-27T23:34:28.483Z,17.87
2023-01-27T23:36:55.459Z,17.27
2023-01-27T23:39:22.499Z,18.77
2023-01-27T23:41:49.424Z,19.30
2023-01-27T23:44:16.428Z,19.33
2023-01-27T23:46:43.483Z,17.60
2023-01-27T23:49:12.116Z,17.93
2023-01-27T23:51:39.146Z,17.57
2023-01-27T23:54:06.412Z,17.63
2023-01-27T23:56:33.462Z,19.17
2023-01-27T23:59:00.510Z,18.77
